createdAt,value
2018-12-24T00:00:20.928Z,0.00
2018-12-24T00:01:20.885Z,0.00
2018-12-24T00:02:20.867Z,0.00
2018-12-24T00:03:20.970Z,0.00
2018-12-24T00:04:20.821Z,0.00
2018-12-24T00:05:20.795Z,0.00
2018-12-24T00:06:20.957Z,0.00
2018-12-24T00:07:20.735Z,0.00
2018-12-24T00:08:20.886Z,0.00
2018-12-24T00:09:20.669Z,0.00
2018-12-24T00:10:20.614Z,0.00
2018-12-24T00:11:20.584Z,0.00
2018-12-24T00:12:20.559Z,0.00
2018-12-24T00:13:20.509Z,0.00
2018-12-24T00:14:21.192Z,0.00
2018-12-24T00:15:20.734Z,0.00
2018-12-24T00:16:20.443Z,0.00
2018-12-24T00:17:20.376Z,0.00
2018-12-24T00:18:20.465Z,0.00
2018-12-24T00:19:20.338Z,0.00
2018-12-24T00:20:20.388Z,0.00
2018-12-24T00:21:20.347Z,0.00
2018-12-24T00:22:20.291Z,0.00
2018-12-24T00:23:20.205Z,0.00
2018-12-24T00:24:20.356Z,0.00
2018-12-24T00:25:20.149Z,0.00
2018-12-24T00:26:20.117Z,0.00
2018-12-24T00:27:20.075Z,0.00
2018-12-24T00:28:20.060Z,0.00
2018-12-24T00:29:19.996Z,0.00
2018-12-24T00:30:20.163Z,0.00
2018-12-24T00:31:19.968Z,0.00
2018-12-24T00:32:19.916Z,0.00
2018-12-24T00:33:20.046Z,0.00
2018-12-24T00:34:19.885Z,0.00
2018-12-24T00:35:19.835Z,0.00
2018-12-24T00:36:19.979Z,0.00
2018-12-24T00:37:19.807Z,0.00
2018-12-24T00:38:19.938Z,0.00
2018-12-24T00:39:19.751Z,0.00
2018-12-24T00:40:20.953Z,0.00
2018-12-24T00:41:19.925Z,0.00
2018-12-24T00:42:19.622Z,0.00
2018-12-24T00:43:19.572Z,0.00
2018-12-24T00:44:19.550Z,0.00
2018-12-24T00:45:19.506Z,0.00
2018-12-24T00:46:19.648Z,0.00
2018-12-24T00:47:19.433Z,0.00
2018-12-24T00:48:19.471Z,0.00
2018-12-24T00:49:19.633Z,0.00
2018-12-24T00:50:19.346Z,0.00
2018-12-24T00:51:19.832Z,0.00
2018-12-24T00:52:19.295Z,0.00
2018-12-24T00:53:19.265Z,0.00
2018-12-24T00:54:19.236Z,0.00
2018-12-24T00:55:19.181Z,0.00
2018-12-24T00:56:20.091Z,0.00
2018-12-24T00:57:19.151Z,0.00
2018-12-24T00:58:19.078Z,0.00
2018-12-24T00:59:19.066Z,0.00
2018-12-24T01:00:19.046Z,0.00
2018-12-24T01:01:19.294Z,0.00
2018-12-24T01:02:19.036Z,0.00
2018-12-24T01:03:18.954Z,0.00
2018-12-24T01:04:18.894Z,0.00
2018-12-24T01:05:18.914Z,0.00
2018-12-24T01:06:18.854Z,0.00
2018-12-24T01:07:18.823Z,0.00
2018-12-24T01:08:18.781Z,0.00
2018-12-24T01:09:18.762Z,0.00
2018-12-24T01:10:18.699Z,0.00
2018-12-24T01:11:18.688Z,0.00
2018-12-24T01:12:24.567Z,0.00
2018-12-24T01:13:19.152Z,0.00
2018-12-24T01:14:18.589Z,0.00
2018-12-24T01:15:18.558Z,0.00
2018-12-24T01:16:18.534Z,0.00
2018-12-24T01:17:18.512Z,0.00
2018-12-24T01:18:18.471Z,0.00
2018-12-24T01:19:18.617Z,0.00
2018-12-24T01:20:18.403Z,0.00
2018-12-24T01:21:18.494Z,0.00
2018-12-24T01:22:18.331Z,0.00
2018-12-24T01:23:18.413Z,0.00
2018-12-24T01:24:18.280Z,0.00
2018-12-24T01:25:18.241Z,0.00
2018-12-24T01:26:18.301Z,0.00
2018-12-24T01:27:18.172Z,0.00
2018-12-24T01:28:18.124Z,0.00
2018-12-24T01:29:18.611Z,0.00
2018-12-24T01:30:18.074Z,0.00
2018-12-24T01:31:18.066Z,0.00
2018-12-24T01:32:18.020Z,0.00
2018-12-24T01:33:18.004Z,0.00
2018-12-24T01:34:17.951Z,0.00
2018-12-24T01:35:18.131Z,0.00
2018-12-24T01:36:17.911Z,0.00
2018-12-24T01:37:17.894Z,0.00
2018-12-24T01:38:17.867Z,0.00
2018-12-24T01:39:17.805Z,0.00
2018-12-24T01:40:17.792Z,0.00
2018-12-24T01:41:17.735Z,0.00
2018-12-24T01:42:17.691Z,0.00
2018-12-24T01:43:17.680Z,0.00
2018-12-24T01:44:17.655Z,0.00
2018-12-24T01:45:17.601Z,0.00
2018-12-24T01:46:17.606Z,0.00
2018-12-24T01:47:17.565Z,0.00
2018-12-24T01:48:17.499Z,0.00
2018-12-24T01:49:17.541Z,0.00
2018-12-24T01:50:17.471Z,0.00
2018-12-24T01:51:17.916Z,0.00
2018-12-24T01:52:17.371Z,0.00
2018-12-24T01:53:17.340Z,0.00
2018-12-24T01:54:17.313Z,0.00
2018-12-24T01:55:17.293Z,0.00
2018-12-24T01:56:17.519Z,0.00
2018-12-24T01:57:17.216Z,0.00
2018-12-24T01:58:17.212Z,0.00
2018-12-24T01:59:17.172Z,0.00
2018-12-24T02:00:17.135Z,0.00
2018-12-24T02:01:17.101Z,0.00
2018-12-24T02:02:17.113Z,0.00
2018-12-24T02:03:17.058Z,0.00
2018-12-24T02:04:16.986Z,0.00
2018-12-24T02:05:16.966Z,0.00
2018-12-24T02:06:16.939Z,0.00
2018-12-24T02:07:16.915Z,0.00
2018-12-24T02:08:16.855Z,0.00
2018-12-24T02:09:16.833Z,0.00
2018-12-24T02:10:16.833Z,0.00
2018-12-24T02:11:16.783Z,0.00
2018-12-24T02:12:16.764Z,0.00
2018-12-24T02:13:16.730Z,0.00
2018-12-24T02:14:16.678Z,0.00
2018-12-24T02:15:16.727Z,0.00
2018-12-24T02:16:16.687Z,0.00
2018-12-24T02:17:16.657Z,0.00
2018-12-24T02:18:16.540Z,0.00
2018-12-24T02:19:16.505Z,0.00
2018-12-24T02:20:16.535Z,0.00
2018-12-24T02:21:16.522Z,0.00
2018-12-24T02:22:16.415Z,0.00
2018-12-24T02:23:16.389Z,0.00
2018-12-24T02:24:16.355Z,0.00
2018-12-24T02:25:16.322Z,0.00
2018-12-24T02:26:16.272Z,0.00
2018-12-24T02:27:16.263Z,0.00
2018-12-24T02:28:16.207Z,0.00
2018-12-24T02:29:16.183Z,0.00
2018-12-24T02:30:16.178Z,0.00
2018-12-24T02:31:16.101Z,0.00
2018-12-24T02:32:16.106Z,0.00
2018-12-24T02:33:16.051Z,0.00
2018-12-24T02:34:16.024Z,0.00
2018-12-24T02:35:15.986Z,0.00
2018-12-24T02:36:15.958Z,0.00
2018-12-24T02:37:16.013Z,0.00
2018-12-24T02:38:16.120Z,0.00
2018-12-24T02:39:15.867Z,0.00
2018-12-24T02:40:15.833Z,0.00
2018-12-24T02:41:15.845Z,0.00
2018-12-24T02:42:15.797Z,0.00
2018-12-24T02:43:15.917Z,0.00
2018-12-24T02:44:15.733Z,0.00
2018-12-24T02:45:15.674Z,0.00
2018-12-24T02:46:15.661Z,0.00
2018-12-24T02:47:15.610Z,0.00
2018-12-24T02:48:15.588Z,0.00
2018-12-24T02:49:15.549Z,0.00
2018-12-24T02:50:15.498Z,0.00
2018-12-24T02:51:15.471Z,0.00
2018-12-24T02:52:15.450Z,0.00
2018-12-24T02:53:15.417Z,0.00
2018-12-24T02:54:15.405Z,0.00
2018-12-24T02:55:15.377Z,0.00
2018-12-24T02:56:15.337Z,0.00
2018-12-24T02:57:15.299Z,0.00
2018-12-24T02:58:15.447Z,0.00
2018-12-24T02:59:15.216Z,0.00
2018-12-24T03:00:15.186Z,0.00
2018-12-24T03:01:15.198Z,0.00
2018-12-24T03:02:15.166Z,0.00
2018-12-24T03:03:15.180Z,0.00
2018-12-24T03:04:15.057Z,0.00
2018-12-24T03:05:15.035Z,0.00
2018-12-24T03:06:14.996Z,0.00
2018-12-24T03:07:15.001Z,0.00
2018-12-24T03:08:14.934Z,0.00
2018-12-24T03:09:14.891Z,0.00
2018-12-24T03:10:14.869Z,0.00
2018-12-24T03:11:14.817Z,0.00
2018-12-24T03:12:14.821Z,0.00
2018-12-24T03:13:14.783Z,0.00
2018-12-24T03:14:14.731Z,0.00
2018-12-24T03:15:14.722Z,0.00
2018-12-24T03:16:14.674Z,0.00
2018-12-24T03:17:14.653Z,0.00
2018-12-24T03:18:14.596Z,0.00
2018-12-24T03:19:14.576Z,0.00
2018-12-24T03:20:14.555Z,0.00
2018-12-24T03:21:14.518Z,0.00
2018-12-24T03:22:14.486Z,0.00
2018-12-24T03:23:14.481Z,0.00
2018-12-24T03:24:14.407Z,0.00
2018-12-24T03:25:14.365Z,0.00
2018-12-24T03:26:14.441Z,0.00
2018-12-24T03:27:14.318Z,0.00
2018-12-24T03:28:14.285Z,0.00
2018-12-24T03:29:14.260Z,0.00
2018-12-24T03:30:14.220Z,0.00
2018-12-24T03:31:14.213Z,0.00
2018-12-24T03:32:14.169Z,0.00
2018-12-24T03:33:14.149Z,0.00
2018-12-24T03:34:14.118Z,0.00
2018-12-24T03:35:14.320Z,0.00
2018-12-24T03:36:14.020Z,0.00
2018-12-24T03:37:13.988Z,0.00
2018-12-24T03:38:13.978Z,0.00
2018-12-24T03:39:13.930Z,0.00
2018-12-24T03:40:13.928Z,0.00
2018-12-24T03:41:13.840Z,0.00
2018-12-24T03:42:13.859Z,0.00
2018-12-24T03:43:13.804Z,0.00
2018-12-24T03:44:13.761Z,0.00
2018-12-24T03:45:13.732Z,0.00
2018-12-24T03:46:13.699Z,0.00
2018-12-24T03:47:13.665Z,0.00
2018-12-24T03:48:13.656Z,0.00
2018-12-24T03:49:13.612Z,0.00
2018-12-24T03:50:13.564Z,0.00
2018-12-24T03:51:14.056Z,0.00
2018-12-24T03:52:13.517Z,0.00
2018-12-24T03:53:13.477Z,0.00
2018-12-24T03:54:13.434Z,0.00
2018-12-24T03:55:13.456Z,0.00
2018-12-24T03:56:13.402Z,0.00
2018-12-24T03:57:13.330Z,0.00
2018-12-24T03:58:13.314Z,0.00
2018-12-24T03:59:13.284Z,0.00
2018-12-24T04:00:13.244Z,0.00
2018-12-24T04:01:13.224Z,0.00
2018-12-24T04:02:13.391Z,0.00
2018-12-24T04:03:13.146Z,0.00
2018-12-24T04:04:13.111Z,0.00
2018-12-24T04:05:13.081Z,0.00
2018-12-24T04:06:13.057Z,0.00
2018-12-24T04:07:13.022Z,0.00
2018-12-24T04:08:13.065Z,0.00
2018-12-24T04:09:12.957Z,0.00
2018-12-24T04:10:12.941Z,0.00
2018-12-24T04:11:12.911Z,0.00
2018-12-24T04:12:12.875Z,0.00
2018-12-24T04:13:22.126Z,0.00
2018-12-24T04:14:12.780Z,0.00
2018-12-24T04:15:12.758Z,0.00
2018-12-24T04:16:12.730Z,0.00
2018-12-24T04:17:12.702Z,0.00
2018-12-24T04:18:12.665Z,0.00
2018-12-24T04:19:12.638Z,0.00
2018-12-24T04:20:12.603Z,0.00
2018-12-24T04:21:12.571Z,0.00
2018-12-24T04:22:12.552Z,0.00
2018-12-24T04:23:12.494Z,0.00
2018-12-24T04:24:12.513Z,0.00
2018-12-24T04:25:12.439Z,0.00
2018-12-24T04:26:12.414Z,0.00
2018-12-24T04:27:12.353Z,0.00
2018-12-24T04:28:12.347Z,0.00
2018-12-24T04:29:12.300Z,0.00
2018-12-24T04:31:12.233Z,0.00
2018-12-24T04:32:12.211Z,0.00
2018-12-24T04:33:12.154Z,0.00
2018-12-24T04:34:12.145Z,0.00
2018-12-24T04:36:12.069Z,0.00
2018-12-24T04:37:12.023Z,0.00
2018-12-24T04:38:12.005Z,0.00
2018-12-24T04:39:11.973Z,0.00
2018-12-24T04:40:11.935Z,0.00
2018-12-24T04:41:11.915Z,0.00
2018-12-24T04:42:11.867Z,0.00
2018-12-24T04:43:11.858Z,0.00
2018-12-24T04:44:11.829Z,0.00
2018-12-24T04:45:11.793Z,0.00
2018-12-24T04:46:11.753Z,0.00
2018-12-24T04:47:11.724Z,0.00
2018-12-24T04:48:11.691Z,0.00
2018-12-24T04:49:11.672Z,0.00
2018-12-24T04:50:11.775Z,0.00
2018-12-24T04:51:11.603Z,0.00
2018-12-24T04:52:11.564Z,0.00
2018-12-24T04:53:11.509Z,0.00
2018-12-24T04:54:11.489Z,0.00
2018-12-24T04:55:11.457Z,0.00
2018-12-24T04:56:11.443Z,0.00
2018-12-24T04:57:11.397Z,0.00
2018-12-24T04:58:11.345Z,0.00
2018-12-24T04:59:11.329Z,0.00
2018-12-24T05:00:11.289Z,0.00
2018-12-24T05:01:11.618Z,0.00
2018-12-24T05:02:11.222Z,0.00
2018-12-24T05:03:11.186Z,0.00
2018-12-24T05:04:11.157Z,0.00
2018-12-24T05:05:11.130Z,0.00
2018-12-24T05:06:11.112Z,0.00
2018-12-24T05:08:11.010Z,0.00
2018-12-24T05:09:11.130Z,0.00
2018-12-24T05:10:10.985Z,0.00
2018-12-24T05:11:10.941Z,0.00
2018-12-24T05:12:10.904Z,0.00
2018-12-24T05:13:10.879Z,0.00
2018-12-24T05:14:10.853Z,0.00
2018-12-24T05:15:10.808Z,0.00
2018-12-24T05:16:10.748Z,0.00
2018-12-24T05:17:10.758Z,0.00
2018-12-24T05:18:10.696Z,0.00
2018-12-24T05:19:10.657Z,0.00
2018-12-24T05:20:10.633Z,0.00
2018-12-24T05:21:10.630Z,0.00
2018-12-24T05:22:10.554Z,0.00
2018-12-24T05:23:10.690Z,0.00
2018-12-24T05:24:10.497Z,0.00
2018-12-24T05:25:10.493Z,0.00
2018-12-24T05:26:10.443Z,0.00
2018-12-24T05:27:10.423Z,0.00
2018-12-24T05:28:10.371Z,0.00
2018-12-24T05:29:10.381Z,0.00
2018-12-24T05:30:10.287Z,0.00
2018-12-24T05:31:10.278Z,0.00
2018-12-24T05:32:10.231Z,0.00
2018-12-24T05:33:10.216Z,0.00
2018-12-24T05:34:10.230Z,0.00
2018-12-24T05:35:10.125Z,0.00
2018-12-24T05:36:10.125Z,0.00
2018-12-24T05:37:10.066Z,0.00
2018-12-24T05:38:10.033Z,0.00
2018-12-24T05:39:10.034Z,0.00
2018-12-24T05:40:09.972Z,0.00
2018-12-24T05:41:09.967Z,0.00
2018-12-24T05:42:09.906Z,0.00
2018-12-24T05:43:09.875Z,0.00
2018-12-24T05:44:09.857Z,0.00
2018-12-24T05:45:09.828Z,0.00
2018-12-24T05:46:09.788Z,0.00
2018-12-24T05:47:09.802Z,0.00
2018-12-24T05:48:09.709Z,0.00
2018-12-24T05:49:09.687Z,0.00
2018-12-24T05:50:09.648Z,0.00
2018-12-24T05:51:09.617Z,0.00
2018-12-24T05:52:09.586Z,0.00
2018-12-24T05:53:09.563Z,0.00
2018-12-24T05:54:09.511Z,0.00
2018-12-24T05:55:09.487Z,0.00
2018-12-24T05:56:09.462Z,0.00
2018-12-24T05:57:09.415Z,0.00
2018-12-24T05:58:09.474Z,0.00
2018-12-24T05:59:09.519Z,0.00
2018-12-24T06:00:09.423Z,0.00
2018-12-24T06:01:09.302Z,0.00
2018-12-24T06:02:09.474Z,0.00
2018-12-24T06:03:09.230Z,0.00
2018-12-24T06:04:09.201Z,0.00
2018-12-24T06:05:09.150Z,0.00
2018-12-24T06:06:09.134Z,0.00
2018-12-24T06:07:09.071Z,0.00
2018-12-24T06:08:09.136Z,0.00
2018-12-24T06:09:09.055Z,0.00
2018-12-24T06:10:09.022Z,0.00
2018-12-24T06:11:08.970Z,0.00
2018-12-24T06:12:09.077Z,0.00
2018-12-24T06:13:08.900Z,0.00
2018-12-24T06:14:08.873Z,0.00
2018-12-24T06:15:08.838Z,0.00
2018-12-24T06:16:08.792Z,0.00
2018-12-24T06:17:08.770Z,0.00
2018-12-24T06:18:08.739Z,0.00
2018-12-24T06:19:08.722Z,0.00
2018-12-24T06:20:08.706Z,0.00
2018-12-24T06:21:08.616Z,0.00
2018-12-24T06:22:08.595Z,0.00
2018-12-24T06:23:08.547Z,0.00
2018-12-24T06:24:08.541Z,0.00
2018-12-24T06:25:08.487Z,0.00
2018-12-24T06:26:08.511Z,0.00
2018-12-24T06:27:08.434Z,0.00
2018-12-24T06:28:08.393Z,0.00
2018-12-24T06:29:08.361Z,0.00
2018-12-24T06:30:08.348Z,0.00
2018-12-24T06:31:08.289Z,0.00
2018-12-24T06:32:08.260Z,0.00
2018-12-24T06:33:08.235Z,0.00
2018-12-24T06:34:08.411Z,0.00
2018-12-24T06:35:08.173Z,0.00
2018-12-24T06:36:08.140Z,0.00
2018-12-24T06:37:08.094Z,0.00
2018-12-24T06:38:08.127Z,0.00
2018-12-24T06:39:08.044Z,0.00
2018-12-24T06:40:08.020Z,0.00
2018-12-24T06:41:07.976Z,0.00
2018-12-24T06:42:07.945Z,0.00
2018-12-24T06:43:07.916Z,0.00
2018-12-24T06:44:07.894Z,0.00
2018-12-24T06:45:07.847Z,0.00
2018-12-24T06:46:07.833Z,0.00
2018-12-24T06:47:07.786Z,0.00
2018-12-24T06:48:07.751Z,0.00
2018-12-24T06:49:07.722Z,0.00
2018-12-24T06:50:07.678Z,0.00
2018-12-24T06:51:07.638Z,0.00
2018-12-24T06:52:07.641Z,0.00
2018-12-24T06:53:07.582Z,0.00
2018-12-24T06:54:07.555Z,0.00
2018-12-24T06:55:07.525Z,0.00
2018-12-24T06:56:07.507Z,0.00
2018-12-24T06:57:07.463Z,0.00
2018-12-24T06:58:07.419Z,0.00
2018-12-24T06:59:07.429Z,0.00
2018-12-24T07:00:07.362Z,0.00
2018-12-24T07:01:07.336Z,0.00
2018-12-24T07:02:07.277Z,0.00
2018-12-24T07:03:07.277Z,0.00
2018-12-24T07:04:07.215Z,0.00
2018-12-24T07:05:07.176Z,0.00
2018-12-24T07:06:07.155Z,0.00
2018-12-24T07:07:07.150Z,0.00
2018-12-24T07:08:07.081Z,0.00
2018-12-24T07:09:07.049Z,0.00
2018-12-24T07:10:07.025Z,0.00
2018-12-24T07:11:06.971Z,0.00
2018-12-24T07:12:06.950Z,0.00
2018-12-24T07:13:06.911Z,0.00
2018-12-24T07:14:15.241Z,0.00
2018-12-24T07:15:06.907Z,0.00
2018-12-24T07:16:06.826Z,0.00
2018-12-24T07:17:06.785Z,0.00
2018-12-24T07:18:06.770Z,0.00
2018-12-24T07:19:06.712Z,0.00
2018-12-24T07:20:06.692Z,0.00
2018-12-24T07:21:06.686Z,0.00
2018-12-24T07:22:06.622Z,0.00
2018-12-24T07:23:06.749Z,0.00
2018-12-24T07:24:06.561Z,0.00
2018-12-24T07:25:06.528Z,0.00
2018-12-24T07:26:06.488Z,0.00
2018-12-24T07:27:06.466Z,0.00
2018-12-24T07:28:06.446Z,0.00
2018-12-24T07:29:06.596Z,0.00
2018-12-24T07:30:06.367Z,0.00
2018-12-24T07:31:06.352Z,0.00
2018-12-24T07:32:06.296Z,0.00
2018-12-24T07:33:06.305Z,0.00
2018-12-24T07:34:06.421Z,0.00
2018-12-24T07:35:06.207Z,0.00
2018-12-24T07:36:06.185Z,0.00
2018-12-24T07:37:06.129Z,0.00
2018-12-24T07:38:06.115Z,0.00
2018-12-24T07:39:06.564Z,0.00
2018-12-24T07:40:06.030Z,0.00
2018-12-24T07:41:06.001Z,0.00
2018-12-24T07:42:05.951Z,0.00
2018-12-24T07:43:05.937Z,0.00
2018-12-24T07:44:05.897Z,0.00
2018-12-24T07:45:06.079Z,0.00
2018-12-24T07:46:05.906Z,0.00
2018-12-24T07:47:05.886Z,0.00
2018-12-24T07:48:05.786Z,0.00
2018-12-24T07:49:05.867Z,0.00
2018-12-24T07:50:05.716Z,0.00
2018-12-24T07:51:05.750Z,0.00
2018-12-24T07:52:05.642Z,0.00
2018-12-24T07:53:05.614Z,0.00
2018-12-24T07:54:05.603Z,0.00
2018-12-24T07:55:05.557Z,0.00
2018-12-24T07:56:05.673Z,0.00
2018-12-24T07:57:05.496Z,0.00
2018-12-24T07:58:05.428Z,0.00
2018-12-24T07:59:05.432Z,0.00
2018-12-24T08:00:05.458Z,0.00
2018-12-24T08:01:05.332Z,0.00
2018-12-24T08:02:05.367Z,0.00
2018-12-24T08:03:05.284Z,0.00
2018-12-24T08:04:05.253Z,0.00
2018-12-24T08:05:05.200Z,0.00
2018-12-24T08:06:05.168Z,0.00
2018-12-24T08:07:05.151Z,0.00
2018-12-24T08:08:05.137Z,0.00
2018-12-24T08:09:05.075Z,0.00
2018-12-24T08:10:05.047Z,0.00
2018-12-24T08:11:05.011Z,0.00
2018-12-24T08:12:04.975Z,0.00
2018-12-24T08:13:04.927Z,0.00
2018-12-24T08:14:04.933Z,0.00
2018-12-24T08:15:04.889Z,0.00
2018-12-24T08:16:04.846Z,0.00
2018-12-24T08:17:04.822Z,0.00
2018-12-24T08:18:04.766Z,0.00
2018-12-24T08:19:04.724Z,0.00
2018-12-24T08:20:04.711Z,0.00
2018-12-24T08:21:04.664Z,0.00
2018-12-24T08:22:04.659Z,0.00
2018-12-24T08:23:04.912Z,0.00
2018-12-24T08:24:04.579Z,0.00
2018-12-24T08:25:04.551Z,0.00
2018-12-24T08:26:04.518Z,0.00
2018-12-24T08:27:04.467Z,0.00
2018-12-24T08:28:04.472Z,0.00
2018-12-24T08:29:04.430Z,0.00
2018-12-24T08:30:04.392Z,0.00
2018-12-24T08:31:04.365Z,0.00
2018-12-24T08:32:04.347Z,0.00
2018-12-24T08:33:04.295Z,0.00
2018-12-24T08:34:04.600Z,0.00
2018-12-24T08:35:04.220Z,0.00
2018-12-24T08:36:04.194Z,0.00
2018-12-24T08:37:04.132Z,0.00
2018-12-24T08:38:04.117Z,0.00
2018-12-24T08:39:04.087Z,0.00
2018-12-24T08:40:04.424Z,0.00
2018-12-24T08:41:04.051Z,0.00
2018-12-24T08:42:04.017Z,0.00
2018-12-24T08:43:03.973Z,0.00
2018-12-24T08:44:03.923Z,0.00
2018-12-24T08:45:03.886Z,0.00
2018-12-24T08:46:04.068Z,0.00
2018-12-24T08:47:03.817Z,0.00
2018-12-24T08:48:03.792Z,0.00
2018-12-24T08:49:03.755Z,0.00
2018-12-24T08:50:03.749Z,0.00
2018-12-24T08:51:03.712Z,0.00
2018-12-24T08:52:03.670Z,0.00
2018-12-24T08:53:03.616Z,0.00
2018-12-24T08:54:03.590Z,5.63
2018-12-24T08:55:03.547Z,5.63
2018-12-24T08:56:03.532Z,5.63
2018-12-24T08:57:03.954Z,5.63
2018-12-24T08:58:03.475Z,5.63
2018-12-24T08:59:03.423Z,5.63
2018-12-24T09:00:03.372Z,5.63
2018-12-24T09:01:03.354Z,11.25
2018-12-24T09:02:03.325Z,11.25
2018-12-24T09:03:03.354Z,11.25
2018-12-24T09:04:03.253Z,11.25
2018-12-24T09:05:03.229Z,11.25
2018-12-24T09:06:03.213Z,11.25
2018-12-24T09:07:03.143Z,11.25
2018-12-24T09:08:03.117Z,11.25
2018-12-24T09:09:03.295Z,16.88
2018-12-24T09:10:03.072Z,16.88
2018-12-24T09:11:03.031Z,16.88
2018-12-24T09:12:03.005Z,16.88
2018-12-24T09:13:02.969Z,22.50
2018-12-24T09:14:02.990Z,22.50
2018-12-24T09:15:02.920Z,22.50
2018-12-24T09:16:02.856Z,28.13
2018-12-24T09:17:02.833Z,28.13
2018-12-24T09:18:02.814Z,22.50
2018-12-24T09:19:02.764Z,16.88
2018-12-24T09:20:02.722Z,22.50
2018-12-24T09:21:02.701Z,16.88
2018-12-24T09:22:02.692Z,16.88
2018-12-24T09:23:02.639Z,22.50
2018-12-24T09:24:02.640Z,22.50
2018-12-24T09:25:02.845Z,28.13
2018-12-24T09:26:02.546Z,33.75
2018-12-24T09:27:02.504Z,39.38
2018-12-24T09:28:02.476Z,39.38
2018-12-24T09:29:02.502Z,39.38
2018-12-24T09:30:02.400Z,39.38
2018-12-24T09:31:02.379Z,33.75
2018-12-24T09:32:02.342Z,28.13
2018-12-24T09:33:02.297Z,28.13
2018-12-24T09:34:02.266Z,28.13
2018-12-24T09:35:02.434Z,33.75
2018-12-24T09:36:02.212Z,33.75
2018-12-24T09:37:02.176Z,39.38
2018-12-24T09:38:02.140Z,45.00
2018-12-24T09:39:02.096Z,50.63
2018-12-24T09:40:02.074Z,50.63
2018-12-24T09:41:02.113Z,56.25
2018-12-24T09:42:02.012Z,56.25
2018-12-24T09:43:01.966Z,61.88
2018-12-24T09:44:01.951Z,67.50
2018-12-24T09:45:01.932Z,67.50
2018-12-24T09:46:01.887Z,67.50
2018-12-24T09:47:01.939Z,61.88
2018-12-24T09:48:01.809Z,61.88
2018-12-24T09:49:01.868Z,67.50
2018-12-24T09:50:01.766Z,67.50
2018-12-24T09:51:01.724Z,67.50
2018-12-24T09:52:01.684Z,67.50
2018-12-24T09:53:01.647Z,67.50
2018-12-24T09:54:01.646Z,61.88
2018-12-24T09:55:01.575Z,61.88
2018-12-24T09:56:01.549Z,61.88
2018-12-24T09:57:01.776Z,61.88
2018-12-24T09:58:01.491Z,67.50
2018-12-24T09:59:01.457Z,73.13
2018-12-24T10:00:01.417Z,78.75
2018-12-24T10:01:01.403Z,78.75
2018-12-24T10:02:01.661Z,84.38
2018-12-24T10:03:01.337Z,78.75
2018-12-24T10:04:03.020Z,78.75
2018-12-24T10:05:01.293Z,73.13
2018-12-24T10:06:01.223Z,67.50
2018-12-24T10:07:01.220Z,67.50
2018-12-24T10:08:01.499Z,61.88
2018-12-24T10:09:01.149Z,61.88
2018-12-24T10:10:01.105Z,56.25
2018-12-24T10:11:01.103Z,50.63
2018-12-24T10:12:01.033Z,45.00
2018-12-24T10:13:01.200Z,45.00
2018-12-24T10:14:00.991Z,45.00
2018-12-24T10:15:08.074Z,39.38
2018-12-24T10:16:00.914Z,39.38
2018-12-24T10:17:00.881Z,39.38
2018-12-24T10:18:00.842Z,39.38
2018-12-24T10:19:00.862Z,39.38
2018-12-24T10:20:00.803Z,39.38
2018-12-24T10:21:00.745Z,39.38
2018-12-24T10:22:00.734Z,45.00
2018-12-24T10:23:00.679Z,45.00
2018-12-24T10:24:00.681Z,45.00
2018-12-24T10:25:00.612Z,45.00
2018-12-24T10:26:00.599Z,45.00
2018-12-24T10:27:00.555Z,50.63
2018-12-24T10:28:00.514Z,50.63
2018-12-24T10:29:00.545Z,50.63
2018-12-24T10:30:00.559Z,50.63
2018-12-24T10:31:00.428Z,56.25
2018-12-24T10:32:00.400Z,56.25
2018-12-24T10:33:00.362Z,61.88
2018-12-24T10:34:00.326Z,73.13
2018-12-24T10:35:00.632Z,73.13
2018-12-24T10:36:00.304Z,78.75
2018-12-24T10:37:00.245Z,84.38
2018-12-24T10:38:00.211Z,90.00
2018-12-24T10:39:00.189Z,95.63
2018-12-24T10:40:00.326Z,95.63
2018-12-24T10:41:00.078Z,95.63
2018-12-24T10:42:00.062Z,95.63
2018-12-24T10:43:00.065Z,95.63
2018-12-24T10:44:00.017Z,90.00
2018-12-24T10:45:00.005Z,84.38
2018-12-24T10:45:59.920Z,84.38
2018-12-24T10:46:59.914Z,90.00
2018-12-24T10:47:59.890Z,90.00
2018-12-24T10:49:00.017Z,95.63
2018-12-24T10:49:59.821Z,106.88
2018-12-24T10:50:59.791Z,112.50
2018-12-24T10:51:59.756Z,112.50
2018-12-24T10:52:59.714Z,118.13
2018-12-24T10:53:59.699Z,123.75
2018-12-24T10:54:59.657Z,118.13
2018-12-24T10:55:59.760Z,129.38
2018-12-24T10:56:59.572Z,135.00
2018-12-24T10:57:59.550Z,140.63
2018-12-24T10:58:59.527Z,146.25
2018-12-24T10:59:59.480Z,135.00
2018-12-24T11:00:59.456Z,135.00
2018-12-24T11:01:59.827Z,140.63
2018-12-24T11:02:59.404Z,146.25
2018-12-24T11:03:59.370Z,140.63
2018-12-24T11:04:59.334Z,129.38
2018-12-24T11:05:59.315Z,140.63
2018-12-24T11:06:59.270Z,140.63
2018-12-24T11:07:59.246Z,140.63
2018-12-24T11:08:59.185Z,146.25
2018-12-24T11:09:59.164Z,146.25
2018-12-24T11:10:59.201Z,129.38
2018-12-24T11:11:59.120Z,123.75
2018-12-24T11:12:59.112Z,135.00
2018-12-24T11:13:59.035Z,135.00
2018-12-24T11:14:59.104Z,135.00
2018-12-24T11:15:59.012Z,129.38
2018-12-24T11:16:58.966Z,129.38
2018-12-24T11:17:58.912Z,118.13
2018-12-24T11:18:58.874Z,118.13
2018-12-24T11:19:58.835Z,118.13
2018-12-24T11:20:58.822Z,123.75
2018-12-24T11:21:58.777Z,129.38
2018-12-24T11:22:58.755Z,135.00
2018-12-24T11:23:58.742Z,135.00
2018-12-24T11:24:58.691Z,140.63
2018-12-24T11:25:58.728Z,146.25
2018-12-24T11:26:58.622Z,146.25
2018-12-24T11:27:58.590Z,157.50
2018-12-24T11:28:58.551Z,157.50
2018-12-24T11:29:58.545Z,163.13
2018-12-24T11:30:58.508Z,163.13
2018-12-24T11:31:58.491Z,168.75
2018-12-24T11:32:58.452Z,174.38
2018-12-24T11:33:58.407Z,174.38
2018-12-24T11:34:58.381Z,174.38
2018-12-24T11:35:58.347Z,174.38
2018-12-24T11:36:58.473Z,174.38
2018-12-24T11:37:58.341Z,168.75
2018-12-24T11:38:58.255Z,174.38
2018-12-24T11:39:58.329Z,174.38
2018-12-24T11:40:58.205Z,168.75
2018-12-24T11:41:58.172Z,174.38
2018-12-24T11:42:58.117Z,174.38
2018-12-24T11:43:58.091Z,174.38
2018-12-24T11:44:58.060Z,180.00
2018-12-24T11:45:58.047Z,180.00
2018-12-24T11:46:58.010Z,202.50
2018-12-24T11:47:57.997Z,196.88
2018-12-24T11:48:57.936Z,208.13
2018-12-24T11:49:57.908Z,213.75
2018-12-24T11:50:57.886Z,225.00
2018-12-24T11:51:59.198Z,219.38
2018-12-24T11:52:57.828Z,202.50
2018-12-24T11:53:57.986Z,196.88
2018-12-24T11:54:57.769Z,191.25
2018-12-24T11:55:57.737Z,185.63
2018-12-24T11:56:57.697Z,180.00
2018-12-24T11:57:57.653Z,174.38
2018-12-24T11:58:57.795Z,168.75
2018-12-24T11:59:57.600Z,151.88
2018-12-24T12:00:57.579Z,157.50
2018-12-24T12:01:57.546Z,174.38
2018-12-24T12:02:57.513Z,191.25
2018-12-24T12:03:57.529Z,208.13
2018-12-24T12:04:57.759Z,208.13
2018-12-24T12:05:57.418Z,185.63
2018-12-24T12:06:57.415Z,191.25
2018-12-24T12:07:57.361Z,202.50
2018-12-24T12:08:57.342Z,213.75
2018-12-24T12:09:57.295Z,196.88
2018-12-24T12:10:57.844Z,174.38
2018-12-24T12:11:57.234Z,185.63
2018-12-24T12:12:57.207Z,196.88
2018-12-24T12:13:57.193Z,202.50
2018-12-24T12:14:57.145Z,180.00
2018-12-24T12:15:57.091Z,174.38
2018-12-24T12:16:57.058Z,191.25
2018-12-24T12:17:57.051Z,180.00
2018-12-24T12:18:57.027Z,174.38
2018-12-24T12:19:56.982Z,157.50
2018-12-24T12:20:57.024Z,157.50
2018-12-24T12:21:57.133Z,157.50
2018-12-24T12:22:56.917Z,157.50
2018-12-24T12:23:56.869Z,163.13
2018-12-24T12:24:56.843Z,174.38
2018-12-24T12:25:56.895Z,185.63
2018-12-24T12:26:57.272Z,196.88
2018-12-24T12:30:16.013Z,208.13
2018-12-24T12:30:42.800Z,213.75
2018-12-24T12:31:42.747Z,213.75
2018-12-24T12:32:42.719Z,202.50
2018-12-24T12:36:12.432Z,202.50
2018-12-24T12:36:26.482Z,219.38
2018-12-24T12:37:26.425Z,202.50
2018-12-24T12:38:29.822Z,202.50
2018-12-24T12:39:26.372Z,208.13
2018-12-24T12:40:26.338Z,208.13
2018-12-24T12:41:26.305Z,202.50
2018-12-24T12:42:26.295Z,213.75
2018-12-24T12:43:26.281Z,219.38
2018-12-24T12:44:26.471Z,225.00
2018-12-24T12:45:26.188Z,230.63
2018-12-24T12:46:26.351Z,230.63
2018-12-24T12:47:26.134Z,236.25
2018-12-24T12:48:26.114Z,225.00
2018-12-24T12:49:26.070Z,219.38
2018-12-24T12:50:26.042Z,208.13
2018-12-24T12:51:26.004Z,208.13
2018-12-24T12:52:25.949Z,219.38
2018-12-24T12:53:26.044Z,219.38
2018-12-24T12:54:25.926Z,213.75
2018-12-24T12:55:25.899Z,230.63
2018-12-24T12:56:25.854Z,247.50
2018-12-24T12:57:25.818Z,247.50
2018-12-24T12:58:25.851Z,253.13
2018-12-24T12:59:25.803Z,253.13
2018-12-24T13:00:25.727Z,247.50
2018-12-24T13:01:25.701Z,230.63
2018-12-24T13:02:25.793Z,230.63
2018-12-24T13:03:25.643Z,230.63
2018-12-24T13:04:25.655Z,230.63
2018-12-24T13:05:25.834Z,241.88
2018-12-24T13:06:25.582Z,236.25
2018-12-24T13:07:25.529Z,230.63
2018-12-24T13:08:25.516Z,236.25
2018-12-24T13:09:25.468Z,236.25
2018-12-24T13:10:25.440Z,241.88
2018-12-24T13:11:25.407Z,241.88